createdAt,value
2022-11-19T00:00:20.152Z,970.28
2022-11-19T00:01:20.126Z,970.31
2022-11-19T00:02:20.165Z,970.29
2022-11-19T00:03:20.151Z,970.27
2022-11-19T00:04:20.093Z,970.29
2022-11-19T00:05:20.082Z,970.28
2022-11-19T00:06:21.073Z,970.21
2022-11-19T00:07:20.134Z,970.25
2022-11-19T00:08:20.052Z,970.20
2022-11-19T00:09:20.397Z,970.24
2022-11-19T00:10:20.022Z,970.24
2022-11-19T00:11:20.024Z,970.18
2022-11-19T00:12:19.982Z,970.23
2022-11-19T00:13:19.982Z,970.17
2022-11-19T00:14:19.973Z,970.24
2022-11-19T00:15:19.972Z,970.20
2022-11-19T00:16:20.961Z,970.14
2022-11-19T00:17:20.952Z,970.13
2022-11-19T00:18:19.905Z,970.20
2022-11-19T00:19:21.207Z,970.25
2022-11-19T00:20:19.872Z,970.20
2022-11-19T00:21:20.864Z,970.21
2022-11-19T00:22:20.862Z,970.28
2022-11-19T00:23:19.844Z,970.23
2022-11-19T00:24:19.833Z,970.27
2022-11-19T00:25:19.812Z,970.26
2022-11-19T00:26:24.002Z,970.36
2022-11-19T00:27:19.796Z,970.31
2022-11-19T00:28:19.785Z,970.35
2022-11-19T00:29:20.089Z,970.31
2022-11-19T00:30:40.945Z,970.30
2022-11-19T00:31:20.753Z,970.28
2022-11-19T00:32:20.736Z,970.32
2022-11-19T00:33:19.724Z,970.30
2022-11-19T00:34:19.733Z,970.31
2022-11-19T00:35:19.694Z,970.36
2022-11-19T00:36:19.702Z,970.36
2022-11-19T00:37:19.657Z,970.38
2022-11-19T00:38:19.696Z,970.41
2022-11-19T00:39:19.765Z,970.38
2022-11-19T00:40:19.637Z,970.37
2022-11-19T00:41:19.648Z,970.36
2022-11-19T00:42:19.606Z,970.32
2022-11-19T00:43:21.631Z,970.36
2022-11-19T00:44:19.586Z,970.31
2022-11-19T00:45:19.566Z,970.33
2022-11-19T00:46:19.580Z,970.36
2022-11-19T00:47:19.543Z,970.29
2022-11-19T00:48:19.527Z,970.30
2022-11-19T00:49:19.834Z,970.29
2022-11-19T00:50:19.487Z,970.28
2022-11-19T00:51:19.486Z,970.32
2022-11-19T00:52:19.489Z,970.21
2022-11-19T00:53:19.468Z,970.27
2022-11-19T00:54:20.475Z,970.22
2022-11-19T00:55:19.444Z,970.25
2022-11-19T00:56:19.435Z,970.33
2022-11-19T00:57:19.408Z,970.32
2022-11-19T00:58:20.399Z,970.28
2022-11-19T00:59:19.591Z,970.34
2022-11-19T01:00:19.380Z,970.32
2022-11-19T01:01:19.417Z,970.35
2022-11-19T01:02:20.369Z,970.33
2022-11-19T01:03:19.330Z,970.35
2022-11-19T01:04:19.318Z,970.40
2022-11-19T01:05:19.320Z,970.38
2022-11-19T01:06:19.758Z,970.40
2022-11-19T01:07:19.307Z,970.34
2022-11-19T01:08:19.268Z,970.37
2022-11-19T01:09:19.627Z,970.40
2022-11-19T01:10:19.250Z,970.41
2022-11-19T01:11:20.205Z,970.35
2022-11-19T01:12:19.241Z,970.44
2022-11-19T01:13:19.193Z,970.47
2022-11-19T01:14:20.200Z,970.47
2022-11-19T01:15:19.181Z,970.57
2022-11-19T01:16:19.171Z,970.55
2022-11-19T01:17:19.160Z,970.58
2022-11-19T01:18:19.131Z,970.57
2022-11-19T01:19:19.442Z,970.52
2022-11-19T01:20:19.162Z,970.66
2022-11-19T01:21:19.101Z,970.61
2022-11-19T01:22:19.089Z,970.70
2022-11-19T01:23:19.061Z,970.65
2022-11-19T01:24:19.052Z,970.63
2022-11-19T01:25:19.032Z,970.69
2022-11-19T01:26:19.013Z,970.66
2022-11-19T01:27:19.032Z,970.63
2022-11-19T01:28:19.015Z,970.66
2022-11-19T01:29:20.354Z,970.68
2022-11-19T01:30:18.986Z,970.64
2022-11-19T01:31:18.952Z,970.64
2022-11-19T01:32:18.963Z,970.65
2022-11-19T01:33:18.932Z,970.63
2022-11-19T01:34:18.912Z,970.72
2022-11-19T01:35:18.922Z,970.67
2022-11-19T01:36:18.907Z,970.67
2022-11-19T01:37:19.884Z,970.76
2022-11-19T01:38:18.884Z,970.78
2022-11-19T01:39:19.200Z,970.78
2022-11-19T01:40:19.834Z,970.76
2022-11-19T01:41:18.836Z,970.78
2022-11-19T01:42:20.844Z,970.78
2022-11-19T01:43:18.816Z,970.73
2022-11-19T01:44:18.809Z,970.81
2022-11-19T01:45:18.815Z,970.80
2022-11-19T01:46:18.765Z,970.79
2022-11-19T01:47:18.764Z,970.81
2022-11-19T01:48:18.741Z,970.84
2022-11-19T01:49:19.085Z,970.87
2022-11-19T01:50:18.713Z,970.80
2022-11-19T01:51:18.696Z,970.83
2022-11-19T01:52:18.715Z,970.83
2022-11-19T01:53:18.667Z,970.92
2022-11-19T01:54:18.665Z,970.88
2022-11-19T01:55:18.667Z,970.87
2022-11-19T01:56:18.656Z,970.94
2022-11-19T01:57:18.637Z,970.87
2022-11-19T01:58:18.605Z,971.02
2022-11-19T01:59:19.079Z,970.98
2022-11-19T02:00:18.587Z,970.93
2022-11-19T02:01:18.604Z,970.98
2022-11-19T02:02:18.576Z,971.03
2022-11-19T02:03:18.539Z,971.02
2022-11-19T02:04:18.534Z,970.98
2022-11-19T02:05:18.528Z,970.97
2022-11-19T02:06:18.507Z,971.06
2022-11-19T02:07:18.542Z,971.06
2022-11-19T02:08:18.483Z,971.02
2022-11-19T02:09:18.735Z,971.06
2022-11-19T02:10:19.437Z,971.09
2022-11-19T02:11:18.461Z,971.04
2022-11-19T02:12:18.490Z,971.09
2022-11-19T02:13:19.458Z,971.06
2022-11-19T02:14:18.407Z,971.01
2022-11-19T02:15:18.469Z,971.03
2022-11-19T02:16:18.446Z,971.00
2022-11-19T02:17:18.388Z,971.02
2022-11-19T02:18:18.372Z,971.04
2022-11-19T02:19:18.667Z,971.05
2022-11-19T02:20:18.329Z,971.05
2022-11-19T02:21:18.326Z,971.04
2022-11-19T02:22:18.309Z,971.04
2022-11-19T02:23:18.299Z,971.03
2022-11-19T02:24:18.261Z,971.05
2022-11-19T02:25:18.283Z,971.01
2022-11-19T02:26:19.259Z,971.08
2022-11-19T02:27:18.239Z,971.05
2022-11-19T02:28:18.240Z,971.07
2022-11-19T02:29:18.561Z,971.09
2022-11-19T02:30:18.189Z,971.06
2022-11-19T02:31:18.206Z,971.06
2022-11-19T02:32:18.150Z,971.07
2022-11-19T02:33:18.161Z,971.04
2022-11-19T02:34:18.141Z,971.05
2022-11-19T02:35:18.120Z,971.06
2022-11-19T02:36:19.131Z,971.14
2022-11-19T02:37:18.110Z,971.15
2022-11-19T02:38:18.098Z,971.15
2022-11-19T02:39:18.508Z,971.17
2022-11-19T02:40:18.059Z,971.20
2022-11-19T02:41:19.104Z,971.23
2022-11-19T02:42:19.103Z,971.21
2022-11-19T02:43:18.088Z,971.20
2022-11-19T02:44:18.042Z,971.27
2022-11-19T02:45:17.994Z,971.32
2022-11-19T02:46:17.982Z,971.26
2022-11-19T02:47:17.952Z,971.23
2022-11-19T02:48:17.960Z,971.25
2022-11-19T02:49:18.381Z,971.30
2022-11-19T02:50:17.934Z,971.29
2022-11-19T02:51:17.941Z,971.33
2022-11-19T02:52:17.950Z,971.31
2022-11-19T02:53:17.960Z,971.28
2022-11-19T02:54:18.001Z,971.26
2022-11-19T02:55:17.953Z,971.28
2022-11-19T02:56:17.895Z,971.25
2022-11-19T02:57:17.862Z,971.27
2022-11-19T02:58:17.875Z,971.25
2022-11-19T02:59:18.060Z,971.24
2022-11-19T03:00:17.849Z,971.25
2022-11-19T03:01:17.854Z,971.27
2022-11-19T03:02:17.761Z,971.23
2022-11-19T03:03:17.822Z,971.20
2022-11-19T03:04:17.766Z,971.23
2022-11-19T03:05:18.762Z,971.23
2022-11-19T03:06:17.744Z,971.27
2022-11-19T03:07:18.776Z,971.23
2022-11-19T03:08:17.682Z,971.22
2022-11-19T03:09:18.112Z,971.27
2022-11-19T03:10:17.710Z,971.13
2022-11-19T03:11:17.654Z,971.17
2022-11-19T03:12:17.732Z,971.21
2022-11-19T03:13:17.662Z,971.20
2022-11-19T03:14:18.610Z,971.19
2022-11-19T03:15:17.631Z,971.17
2022-11-19T03:16:17.613Z,971.13
2022-11-19T03:17:18.633Z,971.21
2022-11-19T03:18:18.623Z,971.25
2022-11-19T03:19:17.969Z,971.20
2022-11-19T03:20:17.587Z,971.20
2022-11-19T03:21:17.513Z,971.20
2022-11-19T03:22:18.513Z,971.23
2022-11-19T03:23:17.517Z,971.29
2022-11-19T03:24:17.486Z,971.32
2022-11-19T03:25:17.533Z,971.32
2022-11-19T03:26:17.488Z,971.33
2022-11-19T03:27:17.506Z,971.37
2022-11-19T03:28:17.445Z,971.33
2022-11-19T03:29:17.798Z,971.37
2022-11-19T03:30:17.453Z,971.42
2022-11-19T03:31:17.427Z,971.39
2022-11-19T03:32:17.385Z,971.43
2022-11-19T03:33:17.397Z,971.40
2022-11-19T03:34:17.366Z,971.41
2022-11-19T03:35:17.365Z,971.35
2022-11-19T03:36:17.315Z,971.46
2022-11-19T03:37:17.318Z,971.45
2022-11-19T03:38:18.316Z,971.45
2022-11-19T03:39:17.793Z,971.41
2022-11-19T03:40:17.307Z,971.42
2022-11-19T03:41:17.255Z,971.42
2022-11-19T03:42:17.249Z,971.47
2022-11-19T03:43:18.236Z,971.47
2022-11-19T03:44:17.236Z,971.49
2022-11-19T03:45:17.216Z,971.51
2022-11-19T03:46:17.226Z,971.44
2022-11-19T03:47:17.177Z,971.47
2022-11-19T03:48:18.189Z,971.55
2022-11-19T03:49:17.517Z,971.58
2022-11-19T04:03:25.164Z,971.73
2022-11-19T04:04:25.114Z,971.73
2022-11-19T04:05:25.114Z,971.72
2022-11-19T04:06:25.085Z,971.78
2022-11-19T04:07:27.201Z,971.86
2022-11-19T04:08:25.052Z,971.80
2022-11-19T04:09:25.082Z,971.78
2022-11-19T04:10:25.053Z,971.86
2022-11-19T04:12:37.213Z,971.86
2022-11-19T04:13:38.194Z,971.81
2022-11-19T04:14:37.192Z,971.78
2022-11-19T04:15:37.194Z,971.77
2022-11-19T04:16:37.172Z,971.79
2022-11-19T04:17:37.145Z,971.78
2022-11-19T04:18:37.144Z,971.79
2022-11-19T04:19:37.147Z,971.75
2022-11-19T04:20:37.142Z,971.80
2022-11-19T04:21:37.082Z,971.79
2022-11-19T04:22:37.127Z,971.82
2022-11-19T04:23:38.083Z,971.87
2022-11-19T04:24:37.063Z,971.83
2022-11-19T04:25:37.064Z,971.84
2022-11-19T04:26:38.025Z,971.84
2022-11-19T04:27:37.025Z,971.81
2022-11-19T04:28:37.015Z,971.88
2022-11-19T04:29:37.013Z,971.80
2022-11-19T04:30:36.996Z,971.77
2022-11-19T04:31:36.956Z,971.83
2022-11-19T04:32:36.964Z,971.80
2022-11-19T04:33:36.944Z,971.83
2022-11-19T04:34:36.945Z,971.85
2022-11-19T04:35:36.924Z,971.84
2022-11-19T04:36:36.914Z,971.90
2022-11-19T04:37:36.908Z,971.90
2022-11-19T04:38:36.873Z,971.96
2022-11-19T04:39:36.869Z,971.93
2022-11-19T04:40:36.891Z,971.97
2022-11-19T04:41:36.847Z,971.97
2022-11-19T04:42:36.809Z,972.03
2022-11-19T04:43:36.804Z,972.01
2022-11-19T04:44:36.807Z,971.98
2022-11-19T04:45:36.795Z,971.93
2022-11-19T04:46:36.776Z,971.98
2022-11-19T04:47:36.766Z,971.92
2022-11-19T04:48:36.747Z,971.89
2022-11-19T04:49:36.752Z,971.95
2022-11-19T04:50:36.823Z,971.86
2022-11-19T04:51:36.778Z,971.84
2022-11-19T04:52:40.882Z,971.87
2022-11-19T04:53:36.684Z,971.84
2022-11-19T04:54:36.704Z,971.89
2022-11-19T04:55:36.636Z,971.89
2022-11-19T04:56:37.661Z,971.83
2022-11-19T04:57:36.666Z,971.92
2022-11-19T04:58:36.646Z,971.95
2022-11-19T04:59:36.636Z,971.89
2022-11-19T05:00:36.697Z,971.90
2022-11-19T05:01:36.733Z,971.92
2022-11-19T05:02:36.684Z,971.90
2022-11-19T05:03:36.679Z,971.94
2022-11-19T05:04:36.600Z,971.93
2022-11-19T05:05:36.542Z,971.98
2022-11-19T05:06:36.577Z,971.96
2022-11-19T05:07:36.621Z,971.95
2022-11-19T05:08:36.489Z,971.93
2022-11-19T05:09:36.490Z,971.87
2022-11-19T05:10:36.478Z,971.88
2022-11-19T05:11:36.501Z,971.89
2022-11-19T05:12:36.509Z,971.91
2022-11-19T05:13:36.428Z,971.85
2022-11-19T05:14:36.429Z,971.90
2022-11-19T05:15:36.471Z,971.88
2022-11-19T05:16:37.469Z,971.90
2022-11-19T05:17:36.490Z,971.86
2022-11-19T05:18:36.386Z,971.92
2022-11-19T05:19:36.351Z,971.88
2022-11-19T05:20:36.410Z,971.89
2022-11-19T05:21:36.309Z,971.89
2022-11-19T05:22:36.391Z,971.90
2022-11-19T05:23:36.390Z,971.90
2022-11-19T05:24:37.313Z,971.88
2022-11-19T05:25:36.353Z,971.93
2022-11-19T05:26:36.339Z,971.94
2022-11-19T05:27:36.320Z,971.92
2022-11-19T05:28:40.127Z,971.92
2022-11-19T05:29:36.211Z,971.89
2022-11-19T05:30:38.200Z,971.92
2022-11-19T05:31:36.276Z,971.87
2022-11-19T05:32:36.189Z,971.85
2022-11-19T05:33:36.249Z,971.92
2022-11-19T05:34:36.142Z,971.89
2022-11-19T05:35:36.196Z,971.90
2022-11-19T05:36:36.175Z,971.92
2022-11-19T05:37:36.222Z,971.90
2022-11-19T05:38:36.194Z,971.90
2022-11-19T05:39:36.085Z,971.92
2022-11-19T05:40:36.140Z,971.87
2022-11-19T05:41:36.134Z,971.89
2022-11-19T05:42:36.111Z,971.89
2022-11-19T05:43:36.039Z,971.87
2022-11-19T05:44:36.042Z,971.92
2022-11-19T05:45:36.074Z,971.89
2022-11-19T05:46:36.034Z,971.95
2022-11-19T05:47:36.090Z,971.94
2022-11-19T05:48:36.973Z,971.97
2022-11-19T05:49:35.962Z,971.91
2022-11-19T05:50:35.983Z,971.90
2022-11-19T05:51:36.002Z,971.85
2022-11-19T05:52:35.901Z,971.83
2022-11-19T05:53:36.934Z,971.87
2022-11-19T05:54:35.891Z,971.90
2022-11-19T05:55:35.923Z,971.87
2022-11-19T05:56:35.890Z,971.85
2022-11-19T05:57:36.969Z,971.88
2022-11-19T05:58:36.003Z,971.84
2022-11-19T05:59:38.485Z,971.91
2022-11-19T06:00:36.883Z,971.83
2022-11-19T06:01:35.853Z,971.94
2022-11-19T06:02:35.880Z,971.90
2022-11-19T06:03:35.833Z,971.88
2022-11-19T06:04:35.843Z,971.91
2022-11-19T06:05:39.995Z,971.92
2022-11-19T06:06:35.767Z,971.94
2022-11-19T06:07:35.836Z,971.87
2022-11-19T06:08:35.793Z,971.90
2022-11-19T06:09:35.783Z,971.89
2022-11-19T06:10:35.727Z,971.91
2022-11-19T06:11:35.666Z,971.93
2022-11-19T06:12:35.694Z,971.89
2022-11-19T06:13:35.747Z,971.86
2022-11-19T06:14:35.714Z,971.97
2022-11-19T06:15:35.616Z,972.00
2022-11-19T06:16:35.674Z,971.98
2022-11-19T06:17:35.675Z,972.04
2022-11-19T06:18:35.636Z,972.06
2022-11-19T06:19:35.663Z,972.05
2022-11-19T06:20:35.545Z,972.10
2022-11-19T06:21:35.595Z,972.16
2022-11-19T06:22:35.543Z,972.18
2022-11-19T06:23:35.587Z,972.11
2022-11-19T06:24:35.586Z,972.10
2022-11-19T06:25:35.484Z,972.12
2022-11-19T06:26:35.539Z,972.15
2022-11-19T06:27:35.587Z,972.08
2022-11-19T06:28:35.528Z,972.09
2022-11-19T06:29:35.535Z,972.12
2022-11-19T06:30:35.426Z,972.13
2022-11-19T06:31:35.477Z,972.15
2022-11-19T06:32:56.493Z,972.19
2022-11-19T06:33:35.385Z,972.23
2022-11-19T06:34:35.386Z,972.26
2022-11-19T06:35:35.565Z,972.22
2022-11-19T06:36:40.427Z,972.22
2022-11-19T06:37:36.389Z,972.23
2022-11-19T06:38:35.295Z,972.23
2022-11-19T06:40:11.018Z,972.17
2022-11-19T06:40:35.269Z,972.17
2022-11-19T06:41:35.336Z,972.17
2022-11-19T06:42:35.316Z,972.26
2022-11-19T06:43:36.330Z,972.28
2022-11-19T06:44:36.238Z,972.27
2022-11-19T06:45:35.348Z,972.23
2022-11-19T06:46:35.217Z,972.31
2022-11-19T06:47:35.264Z,972.27
2022-11-19T06:48:35.232Z,972.26
2022-11-19T06:49:35.188Z,972.34
2022-11-19T06:50:35.269Z,972.34
2022-11-19T06:51:35.206Z,972.34
2022-11-19T06:52:35.169Z,972.35
2022-11-19T06:53:35.165Z,972.36
2022-11-19T06:54:38.839Z,972.38
2022-11-19T06:55:36.100Z,972.40
2022-11-19T06:56:35.080Z,972.42
2022-11-19T06:57:35.058Z,972.44
2022-11-19T06:58:35.042Z,972.46
2022-11-19T06:59:35.048Z,972.50
2022-11-19T07:00:35.018Z,972.55
2022-11-19T07:01:35.056Z,972.58
2022-11-19T07:02:34.999Z,972.58
2022-11-19T07:03:35.031Z,972.64
2022-11-19T07:04:34.981Z,972.63
2022-11-19T07:05:34.959Z,972.62
2022-11-19T07:06:34.964Z,972.69
2022-11-19T07:07:35.022Z,972.67
2022-11-19T07:08:34.929Z,972.65
2022-11-19T07:09:34.910Z,972.66
2022-11-19T07:10:34.943Z,972.66
2022-11-19T07:11:34.882Z,972.69
2022-11-19T07:12:34.863Z,972.70
2022-11-19T07:13:34.852Z,972.66
2022-11-19T07:14:34.833Z,972.73
2022-11-19T07:15:34.900Z,972.70
2022-11-19T07:16:34.866Z,972.68
2022-11-19T07:17:34.812Z,972.79
2022-11-19T07:18:34.794Z,972.76
2022-11-19T07:19:34.791Z,972.80
2022-11-19T07:20:34.762Z,972.82
2022-11-19T07:21:34.825Z,972.85
2022-11-19T07:22:34.734Z,972.84
2022-11-19T07:23:34.707Z,972.82
2022-11-19T07:24:34.696Z,972.78
2022-11-19T07:25:34.703Z,972.79
2022-11-19T07:26:34.702Z,972.86
2022-11-19T07:27:34.672Z,972.79
2022-11-19T07:28:34.725Z,972.89
2022-11-19T07:29:34.711Z,972.86
2022-11-19T07:30:34.646Z,972.85
2022-11-19T07:31:34.623Z,972.89
2022-11-19T07:32:34.593Z,972.92
2022-11-19T07:33:34.583Z,972.90
2022-11-19T07:34:34.582Z,972.90
2022-11-19T07:35:34.572Z,972.95
2022-11-19T07:36:34.563Z,973.03
2022-11-19T07:37:34.542Z,973.03
2022-11-19T07:38:37.144Z,973.00
2022-11-19T07:39:34.510Z,972.98
2022-11-19T07:40:34.524Z,972.98
2022-11-19T07:41:34.483Z,973.02
2022-11-19T07:42:34.473Z,973.03
2022-11-19T07:43:34.455Z,972.98
2022-11-19T07:44:34.443Z,972.96
2022-11-19T07:45:34.430Z,973.04
2022-11-19T07:46:34.433Z,973.08
2022-11-19T07:47:34.440Z,973.12
2022-11-19T07:48:34.395Z,973.11
2022-11-19T07:49:34.384Z,973.10
2022-11-19T07:50:34.390Z,973.07
2022-11-19T07:51:34.377Z,973.12
2022-11-19T07:52:34.356Z,973.11
2022-11-19T07:53:34.329Z,973.09
2022-11-19T07:54:34.305Z,973.06
2022-11-19T07:55:34.294Z,973.13
2022-11-19T07:56:34.304Z,973.11
2022-11-19T07:57:34.295Z,973.11
2022-11-19T07:58:34.255Z,973.11
2022-11-19T07:59:34.256Z,973.06
2022-11-19T08:00:34.236Z,973.11
2022-11-19T08:01:34.254Z,973.06
2022-11-19T08:02:34.234Z,973.09
2022-11-19T08:03:34.211Z,973.10
2022-11-19T08:04:34.182Z,973.06
2022-11-19T08:05:34.187Z,973.08
2022-11-19T08:06:34.158Z,973.07
2022-11-19T08:07:34.196Z,973.09
2022-11-19T08:08:34.131Z,973.12
2022-11-19T08:09:34.108Z,973.11
2022-11-19T08:10:34.113Z,973.11
2022-11-19T08:11:34.118Z,973.15
2022-11-19T08:12:34.098Z,973.11
2022-11-19T08:13:34.070Z,973.13
2022-11-19T08:14:34.034Z,973.09
2022-11-19T08:15:34.040Z,973.04
2022-11-19T08:16:34.023Z,972.98
2022-11-19T08:17:34.015Z,972.99
2022-11-19T08:18:34.017Z,972.99
2022-11-19T08:19:33.998Z,972.99
2022-11-19T08:20:33.978Z,972.99
2022-11-19T08:21:33.948Z,972.98
2022-11-19T08:22:33.971Z,972.98
2022-11-19T08:23:33.928Z,973.02
2022-11-19T08:24:33.926Z,973.05
2022-11-19T08:25:33.918Z,973.00
2022-11-19T08:26:33.913Z,973.01
2022-11-19T08:27:33.900Z,973.06
2022-11-19T08:28:33.884Z,973.00
2022-11-19T08:29:33.857Z,973.11
2022-11-19T08:30:33.851Z,973.17
2022-11-19T08:31:34.841Z,973.13
2022-11-19T08:32:33.819Z,973.18
2022-11-19T08:33:33.829Z,973.14
2022-11-19T08:34:33.798Z,973.16
2022-11-19T08:35:33.789Z,973.14
2022-11-19T08:36:34.860Z,973.18
2022-11-19T08:37:33.771Z,973.10
2022-11-19T08:38:38.410Z,973.18
2022-11-19T08:39:34.733Z,973.18
2022-11-19T08:40:33.719Z,973.16
2022-11-19T08:41:34.707Z,973.25
2022-11-19T08:42:33.790Z,973.23
2022-11-19T08:43:33.699Z,973.23
2022-11-19T08:44:33.660Z,973.24
2022-11-19T08:45:33.678Z,973.17
2022-11-19T08:46:33.634Z,973.24
2022-11-19T08:47:33.640Z,973.19
2022-11-19T08:48:33.657Z,973.20
2022-11-19T08:49:33.634Z,973.26
2022-11-19T08:50:33.641Z,973.23
2022-11-19T08:51:33.599Z,973.33
2022-11-19T08:52:33.667Z,973.29
2022-11-19T08:53:34.614Z,973.29
2022-11-19T08:54:33.565Z,973.39
2022-11-19T08:55:33.583Z,973.35
2022-11-19T08:56:33.552Z,973.45
2022-11-19T08:57:33.490Z,973.43
2022-11-19T08:58:33.520Z,973.46
2022-11-19T08:59:33.491Z,973.44
2022-11-19T09:00:33.543Z,973.39
2022-11-19T09:01:33.513Z,973.43
2022-11-19T09:02:33.520Z,973.41
2022-11-19T09:03:33.451Z,973.47
2022-11-19T09:04:33.425Z,973.42
2022-11-19T09:05:34.473Z,973.50
2022-11-19T09:06:33.441Z,973.45
2022-11-19T09:07:33.528Z,973.44
2022-11-19T09:08:33.397Z,973.46
2022-11-19T09:09:33.372Z,973.54
2022-11-19T09:10:34.556Z,973.48
2022-11-19T09:11:35.370Z,973.45
2022-11-19T09:12:33.344Z,973.51
2022-11-19T09:13:33.312Z,973.49
2022-11-19T09:14:33.390Z,973.49
2022-11-19T09:15:33.308Z,973.47
2022-11-19T09:16:33.354Z,973.55
2022-11-19T09:17:33.316Z,973.54
2022-11-19T09:18:33.362Z,973.55
2022-11-19T09:19:33.326Z,973.52
2022-11-19T09:20:33.748Z,973.52
2022-11-19T09:21:33.275Z,973.54
2022-11-19T09:22:33.281Z,973.53
2022-11-19T09:23:33.284Z,973.55
2022-11-19T09:24:33.251Z,973.60
2022-11-19T09:25:33.165Z,973.64
2022-11-19T09:26:33.165Z,973.63
2022-11-19T09:27:33.177Z,973.66
2022-11-19T09:28:55.151Z,973.71
2022-11-19T09:29:33.142Z,973.73
2022-11-19T09:30:33.144Z,973.73
2022-11-19T09:31:35.177Z,973.77
2022-11-19T09:32:35.180Z,973.72
2022-11-19T09:33:33.274Z,973.73
2022-11-19T09:34:33.055Z,973.77
2022-11-19T09:35:33.051Z,973.74
2022-11-19T09:36:33.093Z,973.70
2022-11-19T09:37:33.065Z,973.65
2022-11-19T09:38:33.085Z,973.70
2022-11-19T09:39:32.986Z,973.71
2022-11-19T09:40:33.984Z,973.67
2022-11-19T09:41:32.974Z,973.63
2022-11-19T09:42:33.079Z,973.69
2022-11-19T09:43:33.085Z,973.63
2022-11-19T09:44:33.004Z,973.70
2022-11-19T09:45:34.011Z,973.67
2022-11-19T09:46:32.897Z,973.71
2022-11-19T09:47:32.916Z,973.73
2022-11-19T10:03:37.458Z,973.60
2022-11-19T10:04:37.650Z,973.61
2022-11-19T10:05:37.437Z,973.59
2022-11-19T10:06:37.440Z,973.61
2022-11-19T10:07:37.495Z,973.59
2022-11-19T10:08:37.473Z,973.56
2022-11-19T10:09:38.433Z,973.59
2022-11-19T10:10:37.518Z,973.60
2022-11-19T10:11:37.378Z,973.62
2022-11-19T10:12:37.369Z,973.70
2022-11-19T10:13:37.379Z,973.67
2022-11-19T10:14:39.355Z,973.67
2022-11-19T10:15:38.155Z,973.72
2022-11-19T10:16:37.396Z,973.70
2022-11-19T10:17:37.299Z,973.73
2022-11-19T10:18:37.308Z,973.76
2022-11-19T10:19:37.398Z,973.65
2022-11-19T10:20:37.326Z,973.67
2022-11-19T10:21:38.256Z,973.61
2022-11-19T10:22:37.236Z,973.64
2022-11-19T10:23:37.241Z,973.63
2022-11-19T10:24:37.247Z,973.63
2022-11-19T10:25:37.277Z,973.61
2022-11-19T10:26:37.258Z,973.54
2022-11-19T10:27:37.208Z,973.52
2022-11-19T10:28:37.170Z,973.51
2022-11-19T10:29:37.179Z,973.55
2022-11-19T10:30:37.234Z,973.57
2022-11-19T10:31:37.234Z,973.58
2022-11-19T10:32:37.100Z,973.59
2022-11-19T10:33:37.141Z,973.62
2022-11-19T10:34:37.113Z,973.58
2022-11-19T10:35:37.181Z,973.62
2022-11-19T10:36:37.126Z,973.61
2022-11-19T10:37:37.036Z,973.55
2022-11-19T10:38:37.041Z,973.60
2022-11-19T10:39:37.081Z,973.58
2022-11-19T10:40:37.091Z,973.54
2022-11-19T10:41:37.045Z,973.50
2022-11-19T10:42:36.953Z,973.63
2022-11-19T10:43:36.965Z,973.55
2022-11-19T10:44:36.974Z,973.56
2022-11-19T10:45:37.013Z,973.57
2022-11-19T10:46:36.920Z,973.52
2022-11-19T10:47:37.008Z,973.53
2022-11-19T10:48:37.921Z,973.52
2022-11-19T10:49:36.919Z,973.48
2022-11-19T10:50:36.953Z,973.45
2022-11-19T10:51:36.922Z,973.54
2022-11-19T10:52:37.203Z,973.42
2022-11-19T10:53:36.827Z,973.49
2022-11-19T10:54:37.867Z,973.49
2022-11-19T10:55:36.843Z,973.49
2022-11-19T10:56:36.774Z,973.52
2022-11-19T10:57:36.775Z,973.56
2022-11-19T10:58:36.763Z,973.53
2022-11-19T10:59:36.746Z,973.49
2022-11-19T11:00:37.804Z,973.49
2022-11-19T11:01:36.743Z,973.50
2022-11-19T11:02:36.710Z,973.52
2022-11-19T11:03:36.707Z,973.49
2022-11-19T11:04:36.656Z,973.51
2022-11-19T11:05:37.793Z,973.52
2022-11-19T11:06:36.655Z,973.52
2022-11-19T11:07:36.674Z,973.51
2022-11-19T11:08:37.626Z,973.46
2022-11-19T11:09:36.615Z,973.48
2022-11-19T11:10:37.617Z,973.40
2022-11-19T11:11:36.591Z,973.37
2022-11-19T11:12:37.557Z,973.41
2022-11-19T11:13:36.564Z,973.38
2022-11-19T11:14:36.535Z,973.36
2022-11-19T11:15:36.567Z,973.36
2022-11-19T11:16:37.923Z,973.38
2022-11-19T11:17:36.531Z,973.39
2022-11-19T11:18:37.485Z,973.32
2022-11-19T11:19:36.482Z,973.35
2022-11-19T11:20:36.483Z,973.35
2022-11-19T11:21:36.445Z,973.28
2022-11-19T11:22:36.452Z,973.32
2022-11-19T11:23:37.446Z,973.31
2022-11-19T11:24:36.405Z,973.32
2022-11-19T11:25:36.418Z,973.30
2022-11-19T11:26:36.367Z,973.30
2022-11-19T11:27:36.386Z,973.28
2022-11-19T11:28:36.355Z,973.30
2022-11-19T11:29:36.339Z,973.30
2022-11-19T11:30:36.359Z,973.30
2022-11-19T11:31:36.328Z,973.31
2022-11-19T11:32:36.298Z,973.34
2022-11-19T11:33:36.330Z,973.42
2022-11-19T11:34:36.299Z,973.39
2022-11-19T11:35:36.267Z,973.35
2022-11-19T11:36:36.241Z,973.38
2022-11-19T11:38:46.457Z,973.32
2022-11-19T11:41:30.056Z,973.29
2022-11-19T11:42:07.177Z,973.23
2022-11-19T11:43:00.755Z,973.25
2022-11-19T11:43:58.679Z,973.26
2022-11-19T11:44:57.795Z,973.26
2022-11-19T11:45:57.650Z,973.30
2022-11-19T11:46:57.706Z,973.29
2022-11-19T11:47:57.619Z,973.25
2022-11-19T11:49:04.714Z,973.22
2022-11-19T11:49:58.922Z,973.24
2022-11-19T11:50:57.616Z,973.29
2022-11-19T11:51:57.578Z,973.27
2022-11-19T11:52:57.549Z,973.33
2022-11-19T11:53:57.628Z,973.35
2022-11-19T11:54:57.568Z,973.34
2022-11-19T11:55:57.535Z,973.35
2022-11-19T11:56:57.572Z,973.39
2022-11-19T11:57:59.549Z,973.36
2022-11-19T11:58:58.479Z,973.35
2022-11-19T11:59:57.567Z,973.38
2022-11-19T12:00:57.496Z,973.38
2022-11-19T12:01:57.547Z,973.42
2022-11-19T12:02:57.500Z,973.49
2022-11-19T12:03:57.387Z,973.47
2022-11-19T12:04:57.518Z,973.57
2022-11-19T12:05:57.468Z,973.53
2022-11-19T12:06:57.428Z,973.59
2022-11-19T12:07:57.359Z,973.54
2022-11-19T12:08:57.341Z,973.58
2022-11-19T12:09:58.320Z,973.46
2022-11-19T12:10:57.356Z,973.45
2022-11-19T12:11:57.314Z,973.46
2022-11-19T12:12:57.291Z,973.39
2022-11-19T12:13:57.287Z,973.31
2022-11-19T12:14:58.249Z,973.26
2022-11-19T12:15:57.276Z,973.28
2022-11-19T12:16:57.241Z,973.23
2022-11-19T12:17:57.246Z,973.30
2022-11-19T12:18:57.232Z,973.27
2022-11-19T12:19:57.200Z,973.31
2022-11-19T12:20:57.191Z,973.29
2022-11-19T12:21:57.191Z,973.28
2022-11-19T12:22:57.196Z,973.29
2022-11-19T12:23:57.151Z,973.33
2022-11-19T12:24:57.140Z,973.35
2022-11-19T12:25:57.158Z,973.33
2022-11-19T12:26:58.136Z,973.28
2022-11-19T12:27:57.099Z,973.19
2022-11-19T12:28:57.079Z,973.24
2022-11-19T12:29:57.080Z,973.23
2022-11-19T12:30:57.088Z,973.21
2022-11-19T12:31:58.072Z,973.24
2022-11-19T12:32:57.074Z,973.32
2022-11-19T12:33:57.003Z,973.25
2022-11-19T12:34:57.153Z,973.36
2022-11-19T12:35:57.111Z,973.39
2022-11-19T12:36:57.067Z,973.32
2022-11-19T12:37:57.055Z,973.35
2022-11-19T12:38:57.003Z,973.37
2022-11-19T12:39:57.048Z,973.33
2022-11-19T12:40:57.050Z,973.36
2022-11-19T12:41:58.049Z,973.33
2022-11-19T12:42:56.979Z,973.30
2022-11-19T12:43:59.030Z,973.27
2022-11-19T12:44:56.940Z,973.31
2022-11-19T12:45:56.983Z,973.27
2022-11-19T12:46:56.959Z,973.27
2022-11-19T12:47:56.932Z,973.24
2022-11-19T12:48:56.833Z,973.27
2022-11-19T12:49:56.811Z,973.24
2022-11-19T12:50:56.909Z,973.29
2022-11-19T12:51:56.831Z,973.33
2022-11-19T12:52:56.832Z,973.34
2022-11-19T12:53:56.770Z,973.24
2022-11-19T12:55:19.849Z,973.28
2022-11-19T12:55:56.842Z,973.21
2022-11-19T12:58:06.963Z,973.24
2022-11-19T13:00:16.368Z,973.17
2022-11-19T13:02:34.120Z,973.20
2022-11-19T13:03:43.837Z,973.18